sensor_id;sensor_type;location;lat;lon;timestamp;P1;durP1;ratioP1;P2;durP2;ratioP2
1106;SDS011;540;49.448;8.612;2022-12-13T15:53:33;12.13;;;5.43;;
1106;SDS011;540;49.448;8.612;2022-12-13T15:58:53;11.32;;;5.15;;
1106;SDS011;540;49.448;8.612;2022-12-13T16:01:24;23.38;;;9.55;;
1106;SDS011;540;49.448;8.612;2022-12-13T16:03:53;26.13;;;12.73;;
1106;SDS011;540;49.448;8.612;2022-12-13T16:06:22;22.10;;;12.60;;
1106;SDS011;540;49.448;8.612;2022-12-13T16:08:54;24.92;;;12.02;;
1106;SDS011;540;49.448;8.612;2022-12-13T16:11:25;17.55;;;6.38;;
1106;SDS011;540;49.448;8.612;2022-12-13T16:16:59;9.57;;;4.50;;
1106;SDS011;540;49.448;8.612;2022-12-13T16:19:34;14.65;;;5.47;;
1106;SDS011;540;49.448;8.612;2022-12-13T16:22:02;12.98;;;6.78;;
1106;SDS011;540;49.448;8.612;2022-12-13T16:24:35;22.30;;;9.30;;
1106;SDS011;540;49.448;8.612;2022-12-13T16:27:03;14.63;;;6.88;;
1106;SDS011;540;49.448;8.612;2022-12-13T16:29:34;11.68;;;5.13;;
1106;SDS011;540;49.448;8.612;2022-12-13T16:32:02;13.93;;;5.90;;
1106;SDS011;540;49.448;8.612;2022-12-13T16:34:34;12.75;;;5.85;;
1106;SDS011;540;49.448;8.612;2022-12-13T16:37:02;13.25;;;5.30;;
1106;SDS011;540;49.448;8.612;2022-12-13T16:39:51;15.93;;;6.25;;
1106;SDS011;540;49.448;8.612;2022-12-13T16:42:19;18.75;;;5.75;;
1106;SDS011;540;49.448;8.612;2022-12-13T16:44:51;10.32;;;4.95;;
1106;SDS011;540;49.448;8.612;2022-12-13T16:47:40;12.23;;;4.88;;
1106;SDS011;540;49.448;8.612;2022-12-13T16:50:14;9.95;;;5.25;;
1106;SDS011;540;49.448;8.612;2022-12-13T16:52:43;18.35;;;6.40;;
1106;SDS011;540;49.448;8.612;2022-12-13T16:55:13;15.73;;;6.25;;
1106;SDS011;540;49.448;8.612;2022-12-13T16:57:40;15.85;;;5.65;;
1106;SDS011;540;49.448;8.612;2022-12-13T17:00:10;14.10;;;6.78;;
1106;SDS011;540;49.448;8.612;2022-12-13T17:02:39;28.23;;;8.95;;
1106;SDS011;540;49.448;8.612;2022-12-13T17:05:07;18.98;;;6.93;;
1106;SDS011;540;49.448;8.612;2022-12-13T17:07:35;13.82;;;6.07;;
1106;SDS011;540;49.448;8.612;2022-12-13T17:10:03;11.50;;;5.50;;
1106;SDS011;540;49.448;8.612;2022-12-13T17:12:33;14.18;;;5.95;;
1106;SDS011;540;49.448;8.612;2022-12-13T17:15:01;15.85;;;6.38;;
1106;SDS011;540;49.448;8.612;2022-12-13T17:17:29;14.00;;;6.00;;
1106;SDS011;540;49.448;8.612;2022-12-13T17:19:57;13.20;;;6.25;;
1106;SDS011;540;49.448;8.612;2022-12-13T17:22:24;11.23;;;5.63;;
1106;SDS011;540;49.448;8.612;2022-12-13T17:24:52;12.65;;;6.50;;
1106;SDS011;540;49.448;8.612;2022-12-13T17:27:20;16.42;;;6.07;;
1106;SDS011;540;49.448;8.612;2022-12-13T17:29:55;15.15;;;5.68;;
1106;SDS011;540;49.448;8.612;2022-12-13T17:32:23;10.98;;;4.95;;
1106;SDS011;540;49.448;8.612;2022-12-13T17:34:51;12.68;;;5.25;;
1106;SDS011;540;49.448;8.612;2022-12-13T17:37:19;13.98;;;5.70;;
1106;SDS011;540;49.448;8.612;2022-12-13T17:39:47;13.35;;;6.47;;
1106;SDS011;540;49.448;8.612;2022-12-13T17:42:15;13.60;;;6.40;;
1106;SDS011;540;49.448;8.612;2022-12-13T17:44:43;15.82;;;6.20;;
1106;SDS011;540;49.448;8.612;2022-12-13T17:47:12;13.77;;;6.00;;
1106;SDS011;540;49.448;8.612;2022-12-13T17:49:40;13.07;;;5.07;;
1106;SDS011;540;49.448;8.612;2022-12-13T17:52:08;14.55;;;6.28;;
1106;SDS011;540;49.448;8.612;2022-12-13T17:54:36;10.80;;;5.45;;
1106;SDS011;540;49.448;8.612;2022-12-13T17:57:04;12.38;;;5.72;;
1106;SDS011;540;49.448;8.612;2022-12-13T17:59:31;11.30;;;4.97;;
1106;SDS011;540;49.448;8.612;2022-12-13T18:02:08;13.48;;;6.07;;
1106;SDS011;540;49.448;8.612;2022-12-13T18:04:39;12.27;;;5.85;;
1106;SDS011;540;49.448;8.612;2022-12-13T18:07:08;9.85;;;4.45;;
1106;SDS011;540;49.448;8.612;2022-12-13T18:09:35;11.27;;;5.70;;
1106;SDS011;540;49.448;8.612;2022-12-13T18:12:03;10.40;;;4.95;;
1106;SDS011;540;49.448;8.612;2022-12-13T18:14:33;13.75;;;5.57;;
1106;SDS011;540;49.448;8.612;2022-12-13T18:17:01;11.98;;;4.90;;
1106;SDS011;540;49.448;8.612;2022-12-13T18:19:29;17.23;;;5.50;;
1106;SDS011;540;49.448;8.612;2022-12-13T18:21:59;13.63;;;5.53;;
1106;SDS011;540;49.448;8.612;2022-12-13T18:24:27;15.00;;;4.78;;
1106;SDS011;540;49.448;8.612;2022-12-13T18:26:55;13.82;;;6.28;;
1106;SDS011;540;49.448;8.612;2022-12-13T18:29:22;11.02;;;4.65;;
1106;SDS011;540;49.448;8.612;2022-12-13T18:31:50;14.23;;;5.47;;
1106;SDS011;540;49.448;8.612;2022-12-13T18:34:18;12.27;;;4.60;;
1106;SDS011;540;49.448;8.612;2022-12-13T18:36:46;11.43;;;4.85;;
1106;SDS011;540;49.448;8.612;2022-12-13T18:39:15;14.00;;;5.18;;
1106;SDS011;540;49.448;8.612;2022-12-13T18:41:43;11.88;;;5.10;;
1106;SDS011;540;49.448;8.612;2022-12-13T18:44:11;15.90;;;5.63;;
1106;SDS011;540;49.448;8.612;2022-12-13T18:46:39;10.00;;;4.68;;
1106;SDS011;540;49.448;8.612;2022-12-13T18:49:11;9.23;;;4.13;;
1106;SDS011;540;49.448;8.612;2022-12-13T18:51:39;12.60;;;5.18;;
1106;SDS011;540;49.448;8.612;2022-12-13T18:54:07;10.13;;;4.10;;
1106;SDS011;540;49.448;8.612;2022-12-13T18:56:36;10.80;;;4.85;;
1106;SDS011;540;49.448;8.612;2022-12-13T18:59:04;10.93;;;4.70;;
1106;SDS011;540;49.448;8.612;2022-12-13T19:01:32;11.45;;;4.63;;
1106;SDS011;540;49.448;8.612;2022-12-13T19:04:00;10.73;;;5.05;;
1106;SDS011;540;49.448;8.612;2022-12-13T19:06:28;12.35;;;5.07;;
1106;SDS011;540;49.448;8.612;2022-12-13T19:08:56;11.50;;;4.93;;
1106;SDS011;540;49.448;8.612;2022-12-13T19:11:25;12.68;;;4.72;;
1106;SDS011;540;49.448;8.612;2022-12-13T19:13:55;15.30;;;5.95;;
1106;SDS011;540;49.448;8.612;2022-12-13T19:16:23;14.48;;;5.45;;
1106;SDS011;540;49.448;8.612;2022-12-13T19:18:52;11.88;;;5.22;;
1106;SDS011;540;49.448;8.612;2022-12-13T19:21:20;7.88;;;4.30;;
1106;SDS011;540;49.448;8.612;2022-12-13T19:23:48;10.60;;;4.97;;
1106;SDS011;540;49.448;8.612;2022-12-13T19:26:23;11.13;;;5.07;;
1106;SDS011;540;49.448;8.612;2022-12-13T19:28:51;11.40;;;5.38;;
1106;SDS011;540;49.448;8.612;2022-12-13T19:31:21;12.82;;;4.97;;
1106;SDS011;540;49.448;8.612;2022-12-13T19:33:56;9.85;;;4.43;;
1106;SDS011;540;49.448;8.612;2022-12-13T19:36:25;12.95;;;6.03;;
1106;SDS011;540;49.448;8.612;2022-12-13T19:38:53;12.02;;;5.78;;
1106;SDS011;540;49.448;8.612;2022-12-13T19:41:22;15.63;;;6.70;;
1106;SDS011;540;49.448;8.612;2022-12-13T19:43:50;14.10;;;5.00;;
1106;SDS011;540;49.448;8.612;2022-12-13T19:46:20;10.50;;;4.40;;
1106;SDS011;540;49.448;8.612;2022-12-13T19:48:48;11.23;;;5.38;;
1106;SDS011;540;49.448;8.612;2022-12-13T19:51:16;9.02;;;4.75;;
1106;SDS011;540;49.448;8.612;2022-12-13T19:53:45;11.95;;;4.78;;
1106;SDS011;540;49.448;8.612;2022-12-13T19:56:13;7.00;;;3.90;;
1106;SDS011;540;49.448;8.612;2022-12-13T19:58:43;10.23;;;4.40;;
1106;SDS011;540;49.448;8.612;2022-12-13T20:01:11;8.23;;;4.22;;
1106;SDS011;540;49.448;8.612;2022-12-13T20:03:42;10.98;;;4.43;;
1106;SDS011;540;49.448;8.612;2022-12-13T20:06:12;13.40;;;5.70;;
1106;SDS011;540;49.448;8.612;2022-12-13T20:08:42;11.70;;;5.32;;
1106;SDS011;540;49.448;8.612;2022-12-13T20:11:11;10.50;;;5.07;;
1106;SDS011;540;49.448;8.612;2022-12-13T20:13:40;15.57;;;6.38;;
1106;SDS011;540;49.448;8.612;2022-12-13T20:16:12;13.40;;;5.47;;
1106;SDS011;540;49.448;8.612;2022-12-13T20:18:43;12.65;;;4.63;;
1106;SDS011;540;49.448;8.612;2022-12-13T20:21:12;9.95;;;4.43;;
1106;SDS011;540;49.448;8.612;2022-12-13T20:23:41;7.82;;;3.67;;
1106;SDS011;540;49.448;8.612;2022-12-13T20:26:15;10.25;;;4.32;;
1106;SDS011;540;49.448;8.612;2022-12-13T20:28:45;9.63;;;4.18;;
1106;SDS011;540;49.448;8.612;2022-12-13T20:31:14;9.02;;;4.38;;
1106;SDS011;540;49.448;8.612;2022-12-13T20:33:46;9.05;;;5.03;;
1106;SDS011;540;49.448;8.612;2022-12-13T20:36:14;10.07;;;4.50;;
1106;SDS011;540;49.448;8.612;2022-12-13T20:38:52;10.07;;;4.00;;
1106;SDS011;540;49.448;8.612;2022-12-13T20:41:21;10.68;;;4.22;;
1106;SDS011;540;49.448;8.612;2022-12-13T20:43:50;9.35;;;4.60;;
1106;SDS011;540;49.448;8.612;2022-12-13T20:46:18;11.27;;;5.20;;
1106;SDS011;540;49.448;8.612;2022-12-13T20:48:48;8.60;;;4.68;;
1106;SDS011;540;49.448;8.612;2022-12-13T20:51:17;11.18;;;4.80;;
1106;SDS011;540;49.448;8.612;2022-12-13T20:53:46;10.45;;;4.32;;
1106;SDS011;540;49.448;8.612;2022-12-13T20:56:16;13.77;;;5.97;;
1106;SDS011;540;49.448;8.612;2022-12-13T20:58:45;13.20;;;5.25;;
1106;SDS011;540;49.448;8.612;2022-12-13T21:01:14;11.82;;;5.78;;
1106;SDS011;540;49.448;8.612;2022-12-13T21:03:43;10.57;;;4.65;;
